Time,TemperatureF,DewpointF,PressureIn,WindDirection,WindDirectionDegrees,WindSpeedMPH,WindSpeedGustMPH,Humidity,HourlyPrecipIn,Conditions,Clouds,dailyrainin,SolarRadiationWatts/m^2,SoftwareType,DateUTC
2013-03-27 00:00:00,39.3,28.1,29.99,WNW,302,0.5,1.2,64,0.00,BKN,,0.01,0.0,WeatherDisplay:10.37,2013-03-27 04:00:00,
2013-03-27 00:01:00,39.3,28.1,29.98,WNW,302,0.0,1.2,64,0.00,RA,,0.00,0.0,WeatherDisplay:10.37,2013-03-27 04:01:00,
2013-03-27 00:06:00,39.3,28.1,29.98,WNW,302,0.0,0.0,64,0.00,RA,,0.00,0.0,WeatherDisplay:10.37,2013-03-27 04:06:00,
2013-03-27 00:11:00,39.2,28.4,29.98,WNW,302,0.7,3.5,65,0.00,BKN,,0.00,0.0,WeatherDisplay:10.37,2013-03-27 04:11:00,
2013-03-27 00:16:00,39.2,28.4,29.98,WNW,302,0.0,0.0,65,0.00,BKN,,0.00,0.0,WeatherDisplay:10.37,2013-03-27 04:16:00,
2013-03-27 00:21:00,38.9,28.1,29.98,WNW,302,0.0,0.0,65,0.00,BKN,,0.00,0.0,WeatherDisplay:10.37,2013-03-27 04:21:00,
2013-03-27 00:26:00,38.8,28.0,29.99,WNW,302,0.0,0.0,65,0.00,BKN,,0.00,0.0,WeatherDisplay:10.37,2013-03-27 04:26:00,
2013-03-27 00:31:00,38.5,27.7,29.99,WNW,302,0.0,0.0,65,0.00,BKN,,0.00,0.0,WeatherDisplay:10.37,2013-03-27 04:31:00,
2013-03-27 00:36:00,38.3,27.9,29.99,WNW,302,0.0,0.0,66,0.00,BKN,,0.00,0.0,WeatherDisplay:10.37,2013-03-27 04:36:00,
2013-03-27 00:41:00,38.2,28.2,29.99,WNW,302,0.0,0.0,67,0.00,BKN,,0.00,0.0,WeatherDisplay:10.37,2013-03-27 04:41:00,
2013-03-27 00:46:00,38.2,28.2,29.99,WNW,302,0.0,0.0,67,0.00,BKN,,0.00,0.0,WeatherDisplay:10.37,2013-03-27 04:46:00,
2013-03-27 00:51:00,38.2,28.2,29.99,WNW,302,0.0,0.0,67,0.00,BKN,,0.00,0.0,WeatherDisplay:10.37,2013-03-27 04:51:00,
2013-03-27 00:56:00,38.2,28.2,29.99,WNW,302,0.0,0.0,67,0.00,BKN,,0.00,0.0,WeatherDisplay:10.37,2013-03-27 04:56:00,
2013-03-27 01:01:00,38.0,28.0,29.99,WNW,302,0.0,0.0,67,0.00,BKN,,0.00,0.0,WeatherDisplay:10.37,2013-03-27 05:01:00,
2013-03-27 01:06:00,37.3,28.1,29.99,WNW,302,0.0,0.0,69,0.00,BKN,,0.00,0.0,WeatherDisplay:10.37,2013-03-27 05:06:00,
2013-03-27 01:11:00,36.9,28.0,29.99,WNW,302,0.0,0.0,70,0.00,FEW,,0.00,0.0,WeatherDisplay:10.37,2013-03-27 05:11:00,
2013-03-27 01:16:00,36.5,28.0,29.99,WNW,302,0.0,0.0,71,0.00,FEW,,0.00,0.0,WeatherDisplay:10.37,2013-03-27 05:16:00,
2013-03-27 01:22:00,36.2,27.7,29.99,WNW,302,0.0,0.0,71,0.00,FEW,,0.00,0.0,WeatherDisplay:10.37,2013-03-27 05:22:00,
2013-03-27 01:27:00,35.8,27.7,29.99,WNW,302,0.0,0.0,72,0.00,FEW,,0.00,0.0,WeatherDisplay:10.37,2013-03-27 05:27:00,
2013-03-27 01:32:00,35.5,27.7,29.99,WNW,302,0.0,0.0,73,0.00,FEW,,0.00,0.0,WeatherDisplay:10.37,2013-03-27 05:32:00,
2013-03-27 01:37:00,35.2,27.7,29.99,WNW,302,0.0,0.0,74,0.00,FEW,,0.00,0.0,WeatherDisplay:10.37,2013-03-27 05:37:00,
2013-03-27 01:42:00,34.9,27.5,30.00,WNW,302,0.1,1.5,74,0.00,FEW,,0.00,0.0,WeatherDisplay:10.37,2013-03-27 05:42:00,
2013-03-27 01:47:00,35.0,27.9,29.99,WNW,300,0.0,0.0,75,0.00,FEW,,0.00,0.0,WeatherDisplay:10.37,2013-03-27 05:47:00,
2013-03-27 01:52:00,35.0,27.9,29.99,WNW,300,0.0,0.0,75,0.00,FEW,,0.00,0.0,WeatherDisplay:10.37,2013-03-27 05:52:00,
2013-03-27 01:57:00,35.2,27.7,29.99,WNW,300,0.0,1.5,74,0.00,FEW,,0.00,0.0,WeatherDisplay:10.37,2013-03-27 05:57:00,
2013-03-27 02:02:00,35.8,28.3,29.99,WNW,300,0.1,1.5,74,0.00,FEW,,0.00,0.0,WeatherDisplay:10.37,2013-03-27 06:02:00,
2013-03-27 02:07:00,36.2,28.0,29.99,NW,311,1.5,7.5,72,0.00,FEW,,0.00,0.0,WeatherDisplay:10.37,2013-03-27 06:07:00,
2013-03-27 02:12:00,36.6,28.1,29.99,NW,311,2.0,4.5,71,0.00,FEW,,0.00,0.0,WeatherDisplay:10.37,2013-03-27 06:12:00,
2013-03-27 02:17:00,36.8,28.3,29.99,NW,311,1.7,4.5,71,0.00,FEW,,0.00,0.0,WeatherDisplay:10.37,2013-03-27 06:17:00,
2013-03-27 02:22:00,37.0,28.5,29.99,NW,311,2.6,4.6,71,0.00,FEW,,0.00,0.0,WeatherDisplay:10.37,2013-03-27 06:22:00,
2013-03-27 02:27:00,37.3,28.4,29.99,NW,310,0.4,3.5,70,0.00,FEW,,0.00,0.0,WeatherDisplay:10.37,2013-03-27 06:27:00,
2013-03-27 02:32:00,37.3,28.1,29.99,NW,310,0.0,0.0,69,0.00,FEW,,0.00,0.0,WeatherDisplay:10.37,2013-03-27 06:32:00,
2013-03-27 02:37:00,37.2,28.0,29.99,NW,310,0.0,0.0,69,0.00,FEW,,0.00,0.0,WeatherDisplay:10.37,2013-03-27 06:37:00,
2013-03-27 02:42:00,37.0,27.8,29.98,NW,310,0.0,0.0,69,0.00,FEW,,0.00,0.0,WeatherDisplay:10.37,2013-03-27 06:42:00,
2013-03-27 02:47:00,36.9,27.7,29.99,NW,310,0.0,0.0,69,0.00,FEW,,0.00,0.0,WeatherDisplay:10.37,2013-03-27 06:47:00,
2013-03-27 02:52:00,36.6,27.7,29.99,NW,310,0.0,0.0,70,0.00,FEW,,0.00,0.0,WeatherDisplay:10.37,2013-03-27 06:52:00,
2013-03-27 02:57:00,36.6,27.7,29.99,NW,310,0.0,0.0,70,0.00,FEW,,0.00,0.0,WeatherDisplay:10.37,2013-03-27 06:57:00,
2013-03-27 03:02:00,36.5,27.6,29.98,NW,310,0.0,0.0,70,0.00,FEW,,0.00,0.0,WeatherDisplay:10.37,2013-03-27 07:02:00,
2013-03-27 03:07:00,36.2,27.4,29.99,NW,310,0.0,0.0,70,0.00,FEW,,0.00,0.0,WeatherDisplay:10.37,2013-03-27 07:07:00,
2013-03-27 03:12:00,36.0,27.2,29.99,NW,310,0.0,0.0,70,0.00,OVC,,0.00,0.0,WeatherDisplay:10.37,2013-03-27 07:12:00,
2013-03-27 03:17:00,35.8,27.0,29.99,NW,310,0.0,0.0,70,0.00,OVC,,0.00,0.0,WeatherDisplay:10.37,2013-03-27 07:17:00,
2013-03-27 03:22:00,35.6,26.8,29.99,NW,310,0.0,0.0,70,0.00,OVC,,0.00,0.0,WeatherDisplay:10.37,2013-03-27 07:22:00,
2013-03-27 03:27:00,35.2,26.7,29.99,NW,310,0.0,0.0,71,0.00,OVC,,0.00,0.0,WeatherDisplay:10.37,2013-03-27 07:27:00,
2013-03-27 03:32:00,34.7,26.6,29.99,NW,310,0.0,0.0,72,0.00,OVC,,0.00,0.0,WeatherDisplay:10.37,2013-03-27 07:32:00,
2013-03-27 03:37:00,34.4,26.6,29.99,NW,310,0.0,0.0,73,0.00,OVC,,0.00,0.0,WeatherDisplay:10.37,2013-03-27 07:37:00,
2013-03-27 03:42:00,34.3,26.9,29.99,NW,310,0.0,0.0,74,0.00,OVC,,0.00,0.0,WeatherDisplay:10.37,2013-03-27 07:42:00,
2013-03-27 03:47:00,34.6,27.5,29.99,NW,309,1.2,3.0,75,0.00,OVC,,0.00,0.0,WeatherDisplay:10.37,2013-03-27 07:47:00,
2013-03-27 03:52:00,35.3,27.8,29.99,NW,309,0.2,1.5,74,0.00,OVC,,0.00,0.0,WeatherDisplay:10.37,2013-03-27 07:52:00,
2013-03-27 03:57:00,35.9,28.1,29.99,NW,309,0.6,3.0,73,0.00,OVC,,0.00,0.0,WeatherDisplay:10.37,2013-03-27 07:57:00,
2013-03-27 04:02:00,36.6,28.1,29.99,WNW,292,2.5,4.6,71,0.00,OVC,,0.00,0.0,WeatherDisplay:10.37,2013-03-27 08:02:00,
2013-03-27 04:07:00,37.0,28.1,29.98,West,281,4.8,6.0,70,0.00,OVC,,0.00,0.0,WeatherDisplay:10.37,2013-03-27 08:07:00,
2013-03-27 04:13:00,37.2,28.0,29.98,WNW,290,2.7,5.8,69,0.00,FEW,,0.00,0.0,WeatherDisplay:10.37,2013-03-27 08:13:00,
2013-03-27 04:18:00,37.2,28.0,29.98,WNW,289,3.6,4.6,69,0.00,FEW,,0.00,0.0,WeatherDisplay:10.37,2013-03-27 08:18:00,
2013-03-27 04:23:00,36.9,27.7,29.98,WNW,289,0.6,3.5,69,0.00,FEW,,0.00,0.0,WeatherDisplay:10.37,2013-03-27 08:23:00,
2013-03-27 04:28:00,36.5,27.3,29.98,WNW,289,0.7,1.5,69,0.00,FEW,,0.00,0.0,WeatherDisplay:10.37,2013-03-27 08:28:00,
2013-03-27 04:33:00,36.3,27.4,29.98,WNW,288,2.1,4.6,70,0.00,FEW,,0.00,0.0,WeatherDisplay:10.37,2013-03-27 08:33:00,
2013-03-27 04:38:00,36.3,27.4,29.98,WNW,288,2.4,4.6,70,0.00,FEW,,0.00,0.0,WeatherDisplay:10.37,2013-03-27 08:38:00,
2013-03-27 04:43:00,36.0,27.2,29.98,WNW,288,0.7,3.0,70,0.00,FEW,,0.00,0.0,WeatherDisplay:10.37,2013-03-27 08:43:00,
2013-03-27 04:48:00,35.9,27.1,29.98,WNW,288,0.0,1.5,70,0.00,FEW,,0.00,0.0,WeatherDisplay:10.37,2013-03-27 08:48:00,
2013-03-27 04:53:00,35.9,27.4,29.98,WNW,289,0.0,0.0,71,0.00,FEW,,0.00,0.0,WeatherDisplay:10.37,2013-03-27 08:53:00,
2013-03-27 04:58:00,35.8,27.0,29.99,WNW,288,0.9,3.5,70,0.00,FEW,,0.00,0.0,WeatherDisplay:10.37,2013-03-27 08:58:00,
2013-03-27 05:03:00,35.8,27.0,29.99,WNW,288,0.1,1.2,70,0.00,FEW,,0.00,0.0,WeatherDisplay:10.37,2013-03-27 09:03:00,
2013-03-27 05:08:00,35.8,27.0,29.99,WNW,288,0.3,1.5,70,0.00,FEW,,0.00,0.0,WeatherDisplay:10.37,2013-03-27 09:08:00,
2013-03-27 05:13:00,35.6,26.8,29.99,WNW,288,0.4,3.5,70,0.00,CLR,,0.00,0.0,WeatherDisplay:10.37,2013-03-27 09:13:00,
2013-03-27 05:18:00,35.8,27.0,29.99,WNW,288,1.2,3.5,70,0.00,CLR,,0.00,0.0,WeatherDisplay:10.37,2013-03-27 09:18:00,
2013-03-27 05:23:00,35.8,27.0,29.99,WNW,288,0.1,1.5,70,0.00,CLR,,0.00,0.0,WeatherDisplay:10.37,2013-03-27 09:23:00,
2013-03-27 05:28:00,35.8,27.0,30.00,WNW,288,0.1,1.2,70,0.00,CLR,,0.00,0.0,WeatherDisplay:10.37,2013-03-27 09:28:00,
2013-03-27 05:33:00,35.9,26.7,30.00,WNW,288,0.0,0.0,69,0.00,CLR,,0.00,0.0,WeatherDisplay:10.37,2013-03-27 09:33:00,
2013-03-27 05:38:00,35.9,26.7,30.00,WNW,288,0.0,0.0,69,0.00,CLR,,0.00,0.0,WeatherDisplay:10.37,2013-03-27 09:38:00,
2013-03-27 05:43:00,35.9,26.7,30.00,WNW,288,0.4,1.5,69,0.00,CLR,,0.00,0.0,WeatherDisplay:10.37,2013-03-27 09:43:00,
2013-03-27 05:48:00,36.0,26.5,30.00,WNW,288,0.1,1.5,68,0.00,CLR,,0.00,0.0,WeatherDisplay:10.37,2013-03-27 09:48:00,
2013-03-27 05:53:00,36.0,26.5,30.00,WNW,288,0.0,0.0,68,0.00,CLR,,0.00,0.0,WeatherDisplay:10.37,2013-03-27 09:53:00,
2013-03-27 05:58:00,36.0,26.5,30.00,WNW,288,0.0,0.0,68,0.00,CLR,,0.00,0.0,WeatherDisplay:10.37,2013-03-27 09:58:00,
2013-03-27 06:03:00,35.9,26.4,30.00,WNW,288,0.2,1.5,68,0.00,FEW,,0.00,0.0,WeatherDisplay:10.37,2013-03-27 10:03:00,
2013-03-27 06:08:00,35.9,26.4,30.00,WNW,288,0.1,1.2,68,0.00,FEW,,0.00,0.0,WeatherDisplay:10.37,2013-03-27 10:08:00,
2013-03-27 06:13:00,36.0,26.5,30.01,WNW,288,2.7,3.5,68,0.00,FEW,,0.00,0.0,WeatherDisplay:10.37,2013-03-27 10:13:00,
2013-03-27 06:18:00,36.0,26.5,30.01,WNW,288,4.7,4.7,68,0.00,FEW,,0.00,0.0,WeatherDisplay:10.37,2013-03-27 10:18:00,
2013-03-27 06:23:00,35.9,26.7,30.01,WNW,288,0.6,3.5,69,0.00,FEW,,0.00,0.0,WeatherDisplay:10.37,2013-03-27 10:23:00,
2013-03-27 06:28:00,35.8,27.0,30.01,WNW,288,1.7,3.5,70,0.00,FEW,,0.00,0.0,WeatherDisplay:10.37,2013-03-27 10:28:00,
2013-03-27 06:33:00,35.5,26.7,30.01,WNW,288,0.0,0.0,70,0.00,FEW,,0.00,0.0,WeatherDisplay:10.37,2013-03-27 10:33:00,
2013-03-27 06:38:00,35.3,26.8,30.01,WNW,288,0.1,1.2,71,0.00,FEW,,0.00,0.0,WeatherDisplay:10.37,2013-03-27 10:38:00,
2013-03-27 06:43:00,35.0,26.5,30.02,WNW,288,0.0,0.0,71,0.00,FEW,,0.00,0.0,WeatherDisplay:10.37,2013-03-27 10:43:00,
2013-03-27 06:48:00,34.6,26.5,30.02,WNW,288,0.1,1.5,72,0.00,FEW,,0.00,0.0,WeatherDisplay:10.37,2013-03-27 10:48:00,
2013-03-27 06:53:00,34.3,26.5,30.02,WNW,288,4.3,6.0,73,0.00,FEW,,0.00,0.0,WeatherDisplay:10.37,2013-03-27 10:53:00,
2013-03-27 06:58:00,34.1,26.7,30.02,WNW,288,0.2,3.5,74,0.00,FEW,,0.00,0.0,WeatherDisplay:10.37,2013-03-27 10:58:00,
2013-03-27 07:03:00,34.1,26.7,30.02,WNW,288,3.8,4.5,74,0.00,FEW,,0.00,0.0,WeatherDisplay:10.37,2013-03-27 11:03:00,
2013-03-27 07:08:00,34.1,27.0,30.02,WSW,252,2.2,5.8,75,0.00,FEW,,0.00,0.0,WeatherDisplay:10.37,2013-03-27 11:08:00,
2013-03-27 07:13:00,34.1,27.0,30.02,WSW,252,2.6,3.5,75,0.00,FEW,,0.00,0.0,WeatherDisplay:10.37,2013-03-27 11:13:00,
2013-03-27 07:18:00,34.1,27.0,30.03,WSW,252,3.5,4.6,75,0.00,FEW,,0.00,5.0,WeatherDisplay:10.37,2013-03-27 11:18:00,
2013-03-27 07:23:00,34.1,27.0,30.03,WSW,252,1.0,3.5,75,0.00,FEW,,0.00,9.0,WeatherDisplay:10.37,2013-03-27 11:23:00,
2013-03-27 07:28:00,34.1,27.0,30.03,WSW,252,1.2,3.5,75,0.00,FEW,,0.00,9.0,WeatherDisplay:10.37,2013-03-27 11:28:00,
2013-03-27 07:33:00,34.1,27.3,30.03,WSW,252,0.1,1.5,76,0.00,FEW,,0.00,11.0,WeatherDisplay:10.37,2013-03-27 11:33:00,
2013-03-27 07:38:00,34.3,27.5,30.03,WSW,252,0.0,0.0,76,0.00,FEW,,0.00,14.0,WeatherDisplay:10.37,2013-03-27 11:38:00,
2013-03-27 07:43:00,34.4,27.6,30.03,WSW,252,0.4,1.5,76,0.00,FEW,,0.00,26.0,WeatherDisplay:10.37,2013-03-27 11:43:00,
2013-03-27 07:48:00,34.6,27.5,30.04,WSW,252,0.0,0.0,75,0.00,FEW,,0.00,28.0,WeatherDisplay:10.37,2013-03-27 11:48:00,
2013-03-27 07:53:00,34.6,27.5,30.04,WSW,252,0.0,1.2,75,0.00,FEW,,0.00,28.0,WeatherDisplay:10.37,2013-03-27 11:53:00,
2013-03-27 07:58:00,34.7,27.6,30.04,WSW,252,0.0,3.5,75,0.00,FEW,,0.00,37.0,WeatherDisplay:10.37,2013-03-27 11:58:00,
2013-03-27 08:04:00,34.9,27.8,30.05,WSW,252,0.3,1.5,75,0.00,FEW,,0.00,51.0,WeatherDisplay:10.37,2013-03-27 12:04:00,
2013-03-27 08:09:00,35.0,27.5,30.05,WSW,252,2.8,3.5,74,0.00,FEW,,0.00,49.0,WeatherDisplay:10.37,2013-03-27 12:09:00,
2013-03-27 08:14:00,35.0,27.5,30.05,WSW,252,3.8,4.6,74,0.00,FEW,,0.00,67.0,WeatherDisplay:10.37,2013-03-27 12:14:00,
2013-03-27 08:19:00,35.2,27.7,30.05,WSW,252,0.3,3.0,74,0.00,FEW,,0.00,58.0,WeatherDisplay:10.37,2013-03-27 12:19:00,
2013-03-27 08:24:00,35.2,27.7,30.05,WSW,252,0.0,0.0,74,0.00,FEW,,0.00,65.0,WeatherDisplay:10.37,2013-03-27 12:24:00,
2013-03-27 08:29:00,35.2,27.7,30.05,WSW,252,0.1,1.5,74,0.00,FEW,,0.00,47.0,WeatherDisplay:10.37,2013-03-27 12:29:00,
2013-03-27 08:34:00,35.5,28.0,30.05,WSW,253,2.4,4.6,74,0.00,FEW,,0.00,251.0,WeatherDisplay:10.37,2013-03-27 12:34:00,
2013-03-27 08:39:00,36.3,28.1,30.05,WSW,252,4.6,4.6,72,0.00,FEW,,0.00,272.0,WeatherDisplay:10.37,2013-03-27 12:39:00,
2013-03-27 08:44:00,37.2,28.3,30.05,WSW,246,5.1,6.0,70,0.00,FEW,,0.00,297.0,WeatherDisplay:10.37,2013-03-27 12:44:00,
2013-03-27 08:49:00,38.0,28.4,30.05,WSW,246,5.3,5.8,68,0.00,FEW,,0.00,323.0,WeatherDisplay:10.37,2013-03-27 12:49:00,
2013-03-27 08:54:00,38.5,28.1,30.05,SW,235,11.0,13.5,66,0.00,FEW,,0.00,336.0,WeatherDisplay:10.37,2013-03-27 12:54:00,
2013-03-27 08:59:00,38.9,28.1,30.05,West,273,2.1,4.6,65,0.00,FEW,,0.00,192.0,WeatherDisplay:10.37,2013-03-27 12:59:00,
2013-03-27 09:04:00,39.3,28.1,30.05,West,279,14.2,16.5,64,0.00,FEW,,0.00,257.0,WeatherDisplay:10.37,2013-03-27 13:04:00,
2013-03-27 09:09:00,39.5,27.5,30.05,NW,310,13.6,24.2,62,0.00,FEW,,0.00,308.0,WeatherDisplay:10.37,2013-03-27 13:09:00,
2013-03-27 09:14:00,40.1,28.5,30.05,NW,325,16.8,22.5,63,0.00,FEW,,0.00,417.0,WeatherDisplay:10.37,2013-03-27 13:14:00,
2013-03-27 09:19:00,40.5,28.9,30.05,NW,321,11.3,15.0,63,0.00,FEW,,0.00,234.0,WeatherDisplay:10.37,2013-03-27 13:19:00,
2013-03-27 09:24:00,40.8,28.8,30.05,NW,323,7.1,10.4,62,0.00,FEW,,0.00,213.0,WeatherDisplay:10.37,2013-03-27 13:24:00,
2013-03-27 09:29:00,40.8,28.8,30.05,WNW,282,6.5,9.2,62,0.00,FEW,,0.00,264.0,WeatherDisplay:10.37,2013-03-27 13:29:00,
2013-03-27 09:34:00,40.8,28.8,30.05,NW,315,14.0,18.4,62,0.00,FEW,,0.00,253.0,WeatherDisplay:10.37,2013-03-27 13:34:00,
2013-03-27 09:39:00,40.6,28.6,30.05,West,278,19.4,19.4,62,0.00,FEW,,0.00,241.0,WeatherDisplay:10.37,2013-03-27 13:39:00,
2013-03-27 09:44:00,40.8,28.8,30.05,NW,304,10.5,13.8,62,0.00,FEW,,0.00,287.0,WeatherDisplay:10.37,2013-03-27 13:44:00,
2013-03-27 09:49:00,41.2,29.2,30.05,WNW,299,4.4,9.2,62,0.00,FEW,,0.00,316.0,WeatherDisplay:10.37,2013-03-27 13:49:00,
2013-03-27 09:54:00,41.5,29.0,30.05,NW,306,13.5,15.0,61,0.00,FEW,,0.00,281.0,WeatherDisplay:10.37,2013-03-27 13:54:00,
2013-03-27 09:59:00,41.5,29.0,30.05,NNW,329,7.3,15.0,61,0.00,FEW,,0.00,301.0,WeatherDisplay:10.37,2013-03-27 13:59:00,
2013-03-27 10:04:00,41.8,28.9,30.05,NW,308,11.3,18.4,60,0.00,FEW,,0.00,272.0,WeatherDisplay:10.37,2013-03-27 14:04:00,
2013-03-27 10:09:00,42.1,30.0,30.05,NW,306,21.1,24.2,62,0.00,FEW,,0.00,325.0,WeatherDisplay:10.37,2013-03-27 14:09:00,
2013-03-27 10:14:00,42.2,29.3,30.05,WNW,302,23.9,30.0,60,0.00,SCT,,0.00,272.0,WeatherDisplay:10.37,2013-03-27 14:14:00,
2013-03-27 10:19:00,42.6,29.7,30.05,West,279,22.6,25.3,60,0.00,SCT,,0.00,821.0,WeatherDisplay:10.37,2013-03-27 14:19:00,
2013-03-27 10:24:00,43.5,30.1,30.05,NW,318,15.1,18.4,59,0.00,SCT,,0.00,812.0,WeatherDisplay:10.37,2013-03-27 14:24:00,
2013-03-27 10:29:00,43.2,29.0,30.05,WNW,297,22.4,25.3,57,0.00,SCT,,0.00,773.0,WeatherDisplay:10.37,2013-03-27 14:29:00,
2013-03-27 10:34:00,43.3,29.9,30.05,West,267,15.4,19.5,59,0.00,SCT,,0.00,835.0,WeatherDisplay:10.37,2013-03-27 14:34:00,
2013-03-27 10:39:00,43.5,29.3,30.04,NNW,342,16.8,18.4,57,0.00,SCT,,0.00,668.0,WeatherDisplay:10.37,2013-03-27 14:39:00,
2013-03-27 10:44:00,43.1,28.9,30.05,WNW,301,26.0,28.8,57,0.00,SCT,,0.00,631.0,WeatherDisplay:10.37,2013-03-27 14:44:00,
2013-03-27 10:49:00,43.2,29.4,30.05,WNW,296,20.2,23.0,58,0.00,SCT,,0.00,800.0,WeatherDisplay:10.37,2013-03-27 14:49:00,
2013-03-27 10:54:00,43.6,29.4,30.04,West,278,21.5,23.0,57,0.00,SCT,,0.00,754.0,WeatherDisplay:10.37,2013-03-27 14:54:00,
2013-03-27 10:59:00,44.6,31.1,30.05,NNW,329,17.9,21.0,59,0.00,SCT,,0.00,874.0,WeatherDisplay:10.37,2013-03-27 14:59:00,
2013-03-27 11:04:00,44.6,29.9,30.05,WNW,297,20.1,25.3,56,0.00,SCT,,0.00,840.0,WeatherDisplay:10.37,2013-03-27 15:04:00,
2013-03-27 11:09:00,44.8,30.5,30.04,WNW,298,14.8,16.1,57,0.00,SCT,,0.00,963.0,WeatherDisplay:10.37,2013-03-27 15:09:00,
2013-03-27 11:14:00,44.9,30.6,30.05,NW,309,14.3,16.5,57,0.00,SCT,,0.00,812.0,WeatherDisplay:10.37,2013-03-27 15:14:00,
2013-03-27 11:19:00,44.8,29.2,30.05,WNW,297,24.2,24.2,54,0.00,SCT,,0.00,269.0,WeatherDisplay:10.37,2013-03-27 15:19:00,
2013-03-27 11:24:00,43.5,27.9,30.05,WNW,290,21.7,24.2,54,0.00,SCT,,0.00,292.0,WeatherDisplay:10.37,2013-03-27 15:24:00,
2013-03-27 11:29:00,43.2,28.1,30.05,NW,313,21.0,23.0,55,0.00,SCT,,0.00,287.0,WeatherDisplay:10.37,2013-03-27 15:29:00,
2013-03-27 11:34:00,43.5,28.4,30.05,NW,306,21.8,24.2,55,0.00,SCT,,0.00,1002.0,WeatherDisplay:10.37,2013-03-27 15:34:00,
2013-03-27 11:39:00,44.5,29.8,30.05,WNW,297,21.8,24.2,56,0.00,SCT,,0.00,1002.0,WeatherDisplay:10.37,2013-03-27 15:39:00,
2013-03-27 11:44:00,45.2,31.3,30.05,WNW,287,19.1,24.2,58,0.00,SCT,,0.00,974.0,WeatherDisplay:10.37,2013-03-27 15:44:00,
2013-03-27 11:49:00,45.1,29.0,30.04,WSW,255,22.5,23.0,53,0.00,SCT,,0.00,872.0,WeatherDisplay:10.37,2013-03-27 15:49:00,
2013-03-27 11:54:00,45.1,29.0,30.04,West,281,18.5,20.7,53,0.00,SCT,,0.00,912.0,WeatherDisplay:10.37,2013-03-27 15:54:00,
2013-03-27 11:59:00,45.4,28.8,30.04,NNW,333,25.8,25.8,52,0.00,SCT,,0.00,468.0,WeatherDisplay:10.37,2013-03-27 15:59:00,
2013-03-27 12:04:00,45.2,28.1,30.05,WNW,284,24.8,26.5,51,0.00,SCT,,0.00,396.0,WeatherDisplay:10.37,2013-03-27 16:04:00,
2013-03-27 12:09:00,44.2,28.1,30.05,NW,326,30.5,30.5,53,0.00,SCT,,0.00,334.0,WeatherDisplay:10.37,2013-03-27 16:09:00,
2013-03-27 12:14:00,44.1,28.0,30.04,NNW,329,21.6,23.0,53,0.00,BKN,,0.00,258.0,WeatherDisplay:10.37,2013-03-27 16:14:00,
2013-03-27 12:19:00,43.8,27.8,30.04,WNW,286,20.7,25.5,53,0.00,BKN,,0.00,374.0,WeatherDisplay:10.37,2013-03-27 16:19:00,
2013-03-27 12:24:00,43.9,27.9,30.04,West,269,23.6,25.3,53,0.00,BKN,,0.00,320.0,WeatherDisplay:10.37,2013-03-27 16:24:00,
2013-03-27 12:29:00,44.3,28.7,30.04,WNW,296,21.3,24.2,54,0.00,BKN,,0.00,267.0,WeatherDisplay:10.37,2013-03-27 16:29:00,
2013-03-27 12:34:00,46.0,29.8,30.04,NNW,335,31.3,31.3,53,0.00,BKN,,0.00,1081.0,WeatherDisplay:10.37,2013-03-27 16:34:00,
2013-03-27 12:39:00,46.1,28.5,30.04,West,266,18.5,25.3,50,0.00,BKN,,0.00,1037.0,WeatherDisplay:10.37,2013-03-27 16:39:00,
2013-03-27 12:44:00,46.1,29.4,30.04,WNW,290,23.0,23.0,52,0.00,BKN,,0.00,431.0,WeatherDisplay:10.37,2013-03-27 16:44:00,
2013-03-27 12:49:00,44.8,27.8,30.05,WNW,285,21.7,23.0,51,0.00,BKN,,0.00,279.0,WeatherDisplay:10.37,2013-03-27 16:49:00,
2013-03-27 12:54:00,44.2,28.1,30.05,WNW,289,12.6,18.4,53,0.00,BKN,,0.00,338.0,WeatherDisplay:10.37,2013-03-27 16:54:00,
2013-03-27 12:59:00,45.1,28.5,30.04,WNW,286,17.1,20.7,52,0.00,BKN,,0.00,301.0,WeatherDisplay:10.37,2013-03-27 16:59:00,
2013-03-27 13:04:00,45.5,29.3,30.04,NW,322,18.3,21.0,53,0.00,BKN,,0.00,1044.0,WeatherDisplay:10.37,2013-03-27 17:04:00,
2013-03-27 13:09:00,45.7,27.1,30.04,WNW,287,12.5,16.1,48,0.00,BKN,,0.00,512.0,WeatherDisplay:10.37,2013-03-27 17:09:00,
2013-03-27 13:14:00,45.4,27.8,30.04,WNW,295,20.8,23.0,50,0.00,BKN,,0.00,411.0,WeatherDisplay:10.37,2013-03-27 17:14:00,
2013-03-27 13:19:00,46.1,28.5,30.04,NNW,336,22.8,22.8,50,0.00,BKN,,0.00,563.0,WeatherDisplay:10.37,2013-03-27 17:19:00,
2013-03-27 13:24:00,45.8,28.7,30.04,NW,311,21.1,21.1,51,0.00,BKN,,0.00,469.0,WeatherDisplay:10.37,2013-03-27 17:24:00,
2013-03-27 13:29:00,46.1,29.9,30.04,NW,321,21.0,21.0,53,0.00,BKN,,0.00,930.0,WeatherDisplay:10.37,2013-03-27 17:29:00,
2013-03-27 13:34:00,46.7,28.5,30.04,WNW,301,19.9,23.0,49,0.00,BKN,,0.00,316.0,WeatherDisplay:10.37,2013-03-27 17:34:00,
2013-03-27 13:39:00,46.4,29.2,30.04,WSW,238,19.1,19.5,51,0.00,BKN,,0.00,1072.0,WeatherDisplay:10.37,2013-03-27 17:39:00,
2013-03-27 13:44:00,46.0,27.9,30.04,WNW,298,21.9,25.3,49,0.00,BKN,,0.00,468.0,WeatherDisplay:10.37,2013-03-27 17:44:00,
2013-03-27 13:49:00,46.8,29.1,30.04,NW,323,21.3,24.2,50,0.00,BKN,,0.00,504.0,WeatherDisplay:10.37,2013-03-27 17:49:00,
2013-03-27 13:54:00,46.4,26.7,30.03,NNW,331,30.9,31.1,46,0.00,BKN,,0.00,281.0,WeatherDisplay:10.37,2013-03-27 17:54:00,
2013-03-27 13:59:00,45.1,26.6,30.04,WNW,292,24.0,24.2,48,0.00,BKN,,0.00,274.0,WeatherDisplay:10.37,2013-03-27 17:59:00,
2013-03-27 14:04:00,44.9,26.4,30.04,WNW,288,24.8,25.5,48,0.00,BKN,,0.00,388.0,WeatherDisplay:10.37,2013-03-27 18:04:00,
2013-03-27 14:09:00,45.4,27.3,30.03,WNW,301,25.6,26.5,49,0.00,BKN,,0.00,404.0,WeatherDisplay:10.37,2013-03-27 18:09:00,
2013-03-27 14:14:00,45.2,26.1,30.03,West,281,27.8,33.4,47,0.00,BKN,,0.00,464.0,WeatherDisplay:10.37,2013-03-27 18:14:00,
2013-03-27 14:19:00,46.0,26.9,30.03,NW,306,25.3,25.3,47,0.00,BKN,,0.00,997.0,WeatherDisplay:10.37,2013-03-27 18:19:00,
2013-03-27 14:24:00,46.2,26.0,30.03,WNW,290,23.5,26.5,45,0.00,BKN,,0.00,381.0,WeatherDisplay:10.37,2013-03-27 18:24:00,
2013-03-27 14:29:00,45.8,25.6,30.03,NW,319,27.7,27.7,45,0.00,BKN,,0.00,399.0,WeatherDisplay:10.37,2013-03-27 18:29:00,
2013-03-27 14:34:00,45.5,25.9,30.03,WNW,284,22.5,31.1,46,0.00,BKN,,0.00,330.0,WeatherDisplay:10.37,2013-03-27 18:34:00,
2013-03-27 14:39:00,45.2,24.6,30.03,West,269,20.5,26.5,44,0.00,BKN,,0.00,274.0,WeatherDisplay:10.37,2013-03-27 18:39:00,
2013-03-27 14:44:00,44.8,24.2,30.03,WNW,300,23.2,25.3,44,0.00,BKN,,0.00,230.0,WeatherDisplay:10.37,2013-03-27 18:44:00,
2013-03-27 14:49:00,45.1,24.5,30.03,NW,311,30.0,30.0,44,0.00,BKN,,0.00,385.0,WeatherDisplay:10.37,2013-03-27 18:49:00,
2013-03-27 14:54:00,46.2,27.6,30.03,NW,323,17.4,19.6,48,0.00,BKN,,0.00,1014.0,WeatherDisplay:10.37,2013-03-27 18:54:00,
2013-03-27 14:59:00,46.1,25.4,30.03,NW,317,28.4,28.4,44,0.00,BKN,,0.00,274.0,WeatherDisplay:10.37,2013-03-27 18:59:00,
2013-03-27 15:04:00,45.7,25.5,30.03,WNW,293,12.7,18.4,45,0.00,BKN,,0.00,446.0,WeatherDisplay:10.37,2013-03-27 19:04:00,
2013-03-27 15:09:00,46.2,26.5,30.03,West,269,21.6,25.3,46,0.00,BKN,,0.00,1018.0,WeatherDisplay:10.37,2013-03-27 19:09:00,
2013-03-27 15:14:00,46.8,27.6,30.03,WNW,290,20.0,24.0,47,0.00,BKN,,0.00,374.0,WeatherDisplay:10.37,2013-03-27 19:14:00,
2013-03-27 15:19:00,46.5,26.3,30.03,WNW,303,16.6,24.2,45,0.00,BKN,,0.00,322.0,WeatherDisplay:10.37,2013-03-27 19:19:00,
2013-03-27 15:25:00,46.0,25.3,30.03,WNW,299,20.6,24.2,44,0.00,BKN,,0.00,309.0,WeatherDisplay:10.37,2013-03-27 19:25:00,
2013-03-27 15:30:00,47.7,27.9,30.03,NW,304,21.8,22.5,46,0.00,BKN,,0.00,663.0,WeatherDisplay:10.37,2013-03-27 19:30:00,
2013-03-27 15:35:00,47.4,25.4,30.03,NW,304,26.0,27.0,42,0.00,BKN,,0.00,654.0,WeatherDisplay:10.37,2013-03-27 19:35:00,
2013-03-27 15:40:00,46.7,25.9,30.03,WNW,288,22.6,22.6,44,0.00,BKN,,0.00,279.0,WeatherDisplay:10.37,2013-03-27 19:40:00,
2013-03-27 15:45:00,47.1,26.3,30.03,WNW,294,21.2,24.2,44,0.00,BKN,,0.00,214.0,WeatherDisplay:10.37,2013-03-27 19:45:00,
2013-03-27 15:50:00,46.4,24.5,30.03,WNW,295,24.7,25.3,42,0.00,BKN,,0.00,218.0,WeatherDisplay:10.37,2013-03-27 19:50:00,
2013-03-27 15:55:00,46.0,24.7,30.03,NNW,346,18.5,24.2,43,0.00,BKN,,0.00,218.0,WeatherDisplay:10.37,2013-03-27 19:55:00,
2013-03-27 16:00:00,45.7,25.5,30.03,WNW,292,13.9,16.1,45,0.00,BKN,,0.00,287.0,WeatherDisplay:10.37,2013-03-27 20:00:00,
2013-03-27 16:05:00,45.7,25.0,30.03,WNW,296,16.7,18.0,44,0.00,SCT,,0.00,162.0,WeatherDisplay:10.37,2013-03-27 20:05:00,
2013-03-27 16:10:00,45.5,25.9,30.03,WNW,301,21.6,24.2,46,0.00,SCT,,0.00,260.0,WeatherDisplay:10.37,2013-03-27 20:10:00,
2013-03-27 16:15:00,45.2,25.1,30.03,NW,305,15.6,15.6,45,0.00,SCT,,0.00,181.0,WeatherDisplay:10.37,2013-03-27 20:15:00,
2013-03-27 16:20:00,45.5,25.4,30.03,NW,310,13.9,16.5,45,0.00,SCT,,0.00,313.0,WeatherDisplay:10.37,2013-03-27 20:20:00,
2013-03-27 16:25:00,46.0,25.3,30.03,NNW,338,16.3,19.6,44,0.00,SCT,,0.00,258.0,WeatherDisplay:10.37,2013-03-27 20:25:00,
2013-03-27 16:30:00,46.4,24.5,30.03,WNW,300,26.2,26.2,42,0.00,SCT,,0.00,290.0,WeatherDisplay:10.37,2013-03-27 20:30:00,
2013-03-27 16:35:00,46.2,23.8,30.03,NW,323,19.7,24.2,41,0.00,SCT,,0.00,262.0,WeatherDisplay:10.37,2013-03-27 20:35:00,
2013-03-27 16:40:00,47.0,25.1,30.03,WNW,285,16.3,20.7,42,0.00,SCT,,0.00,341.0,WeatherDisplay:10.37,2013-03-27 20:40:00,
2013-03-27 16:45:00,47.3,24.8,30.02,WNW,290,16.9,18.4,41,0.00,SCT,,0.00,290.0,WeatherDisplay:10.37,2013-03-27 20:45:00,
2013-03-27 16:50:00,47.0,22.7,30.02,West,277,23.0,25.3,38,0.00,SCT,,0.00,207.0,WeatherDisplay:10.37,2013-03-27 20:50:00,
2013-03-27 16:55:00,46.0,23.0,30.03,NW,323,24.2,24.2,40,0.00,SCT,,0.00,185.0,WeatherDisplay:10.37,2013-03-27 20:55:00,
2013-03-27 17:00:00,45.8,22.8,30.02,WNW,293,18.9,19.6,40,0.00,SCT,,0.00,192.0,WeatherDisplay:10.37,2013-03-27 21:00:00,
2013-03-27 17:05:00,46.0,24.2,30.03,WNW,290,13.2,18.4,42,0.00,SCT,,0.00,162.0,WeatherDisplay:10.37,2013-03-27 21:05:00,
2013-03-27 17:10:00,46.0,24.2,30.03,WNW,289,16.3,19.6,42,0.00,SCT,,0.00,127.0,WeatherDisplay:10.37,2013-03-27 21:10:00,
2013-03-27 17:15:00,45.8,23.4,30.03,WNW,296,17.1,19.6,41,0.00,SCT,,0.00,104.0,WeatherDisplay:10.37,2013-03-27 21:15:00,
2013-03-27 17:20:00,45.7,23.3,30.03,NW,317,13.9,23.0,41,0.00,SCT,,0.00,125.0,WeatherDisplay:10.37,2013-03-27 21:20:00,
2013-03-27 17:25:00,45.7,23.9,30.03,WNW,282,10.2,19.6,42,0.00,SCT,,0.00,167.0,WeatherDisplay:10.37,2013-03-27 21:25:00,
2013-03-27 17:30:00,45.8,24.0,30.03,WNW,297,11.0,15.0,42,0.00,SCT,,0.00,155.0,WeatherDisplay:10.37,2013-03-27 21:30:00,
2013-03-27 17:35:00,46.0,23.6,30.03,NW,321,21.1,21.1,41,0.00,SCT,,0.00,134.0,WeatherDisplay:10.37,2013-03-27 21:35:00,
2013-03-27 17:40:00,46.0,23.0,30.03,NW,317,13.2,16.1,40,0.00,SCT,,0.00,236.0,WeatherDisplay:10.37,2013-03-27 21:40:00,
2013-03-27 17:45:00,46.2,23.2,30.03,NW,312,15.8,16.5,40,0.00,SCT,,0.00,410.0,WeatherDisplay:10.37,2013-03-27 21:45:00,
2013-03-27 17:50:00,46.4,22.1,30.03,NW,311,19.1,20.7,38,0.00,SCT,,0.00,130.0,WeatherDisplay:10.37,2013-03-27 21:50:00,
2013-03-27 17:55:00,46.1,23.7,30.03,NNW,331,16.1,18.0,41,0.00,SCT,,0.00,111.0,WeatherDisplay:10.37,2013-03-27 21:55:00,
2013-03-27 18:00:00,45.8,22.8,30.03,NW,307,24.4,25.3,40,0.00,SCT,,0.00,125.0,WeatherDisplay:10.37,2013-03-27 22:00:00,
2013-03-27 18:05:00,45.7,23.3,30.03,WSW,250,14.9,18.0,41,0.00,SCT,,0.00,79.0,WeatherDisplay:10.37,2013-03-27 22:05:00,
2013-03-27 18:11:00,45.5,23.1,30.03,NW,319,16.5,18.0,41,0.00,SCT,,0.00,76.0,WeatherDisplay:10.37,2013-03-27 22:11:00,
2013-03-27 18:16:00,45.4,24.2,30.04,NW,310,17.6,20.7,43,0.00,BKN,,0.00,211.0,WeatherDisplay:10.37,2013-03-27 22:16:00,
2013-03-27 18:21:00,45.4,24.7,30.04,NW,311,13.3,18.4,44,0.00,BKN,,0.00,100.0,WeatherDisplay:10.37,2013-03-27 22:21:00,
2013-03-27 18:26:00,44.8,26.8,30.05,WNW,298,12.4,20.7,49,0.00,BKN,,0.00,142.0,WeatherDisplay:10.37,2013-03-27 22:26:00,
2013-03-27 18:31:00,44.3,27.8,30.05,WNW,293,11.6,18.4,52,0.00,BKN,,0.00,118.0,WeatherDisplay:10.37,2013-03-27 22:31:00,
2013-03-27 18:36:00,44.2,26.7,30.05,WNW,299,13.8,18.4,50,0.00,BKN,,0.00,35.0,WeatherDisplay:10.37,2013-03-27 22:36:00,
2013-03-27 18:41:00,43.9,26.4,30.05,WNW,283,5.9,8.1,50,0.00,BKN,,0.00,39.0,WeatherDisplay:10.37,2013-03-27 22:41:00,
2013-03-27 18:46:00,43.8,26.3,30.05,NW,310,10.3,10.3,50,0.00,BKN,,0.00,51.0,WeatherDisplay:10.37,2013-03-27 22:46:00,
2013-03-27 18:51:00,43.8,25.9,30.05,WNW,289,8.8,13.8,49,0.00,BKN,,0.00,60.0,WeatherDisplay:10.37,2013-03-27 22:51:00,
2013-03-27 18:56:00,43.9,26.0,30.05,NW,316,9.4,9.4,49,0.00,BKN,,0.00,42.0,WeatherDisplay:10.37,2013-03-27 22:56:00,
2013-03-27 19:01:00,43.8,25.9,30.05,WNW,301,7.1,10.5,49,0.00,BKN,,0.00,32.0,WeatherDisplay:10.37,2013-03-27 23:01:00,
2013-03-27 19:06:00,43.5,25.6,30.05,NW,304,5.4,7.5,49,0.00,BKN,,0.00,23.0,WeatherDisplay:10.37,2013-03-27 23:06:00,
2013-03-27 19:11:00,43.3,25.9,30.05,NW,306,1.3,3.5,50,0.00,BKN,,0.00,18.0,WeatherDisplay:10.37,2013-03-27 23:11:00,
2013-03-27 19:16:00,43.2,25.3,30.05,NW,309,10.3,10.5,49,0.00,BKN,,0.00,12.0,WeatherDisplay:10.37,2013-03-27 23:16:00,
2013-03-27 19:21:00,43.1,25.2,30.05,WNW,302,8.2,9.2,49,0.00,BKN,,0.00,9.0,WeatherDisplay:10.37,2013-03-27 23:21:00,
2013-03-27 19:26:00,43.2,24.8,30.05,WNW,294,9.8,10.4,48,0.00,BKN,,0.00,5.0,WeatherDisplay:10.37,2013-03-27 23:26:00,
2013-03-27 19:31:00,43.2,24.8,30.05,WNW,286,5.1,9.2,48,0.00,BKN,,0.00,0.0,WeatherDisplay:10.37,2013-03-27 23:31:00,
2013-03-27 19:36:00,43.1,24.7,30.06,NW,311,15.7,18.4,48,0.00,BKN,,0.00,0.0,WeatherDisplay:10.37,2013-03-27 23:36:00,
2013-03-27 19:41:00,43.1,24.7,30.06,WNW,285,8.1,10.4,48,0.00,BKN,,0.00,0.0,WeatherDisplay:10.37,2013-03-27 23:41:00,
2013-03-27 19:46:00,42.8,24.9,30.06,WNW,293,7.8,7.8,49,0.00,BKN,,0.00,0.0,WeatherDisplay:10.37,2013-03-27 23:46:00,
2013-03-27 19:51:00,42.5,25.1,30.06,WNW,300,3.1,6.0,50,0.00,BKN,,0.00,0.0,WeatherDisplay:10.37,2013-03-27 23:51:00,
2013-03-27 19:56:00,42.2,24.9,30.06,WNW,286,3.7,6.0,50,0.00,BKN,,0.00,0.0,WeatherDisplay:10.37,2013-03-27 23:56:00,
2013-03-27 20:01:00,42.1,24.8,30.06,WNW,302,2.1,4.6,50,0.00,BKN,,0.00,0.0,WeatherDisplay:10.37,2013-03-28 00:01:00,
2013-03-27 20:06:00,41.8,25.0,30.07,WNW,300,0.8,3.5,51,0.00,SCT,,0.00,0.0,WeatherDisplay:10.37,2013-03-28 00:06:00,
2013-03-27 20:11:00,41.5,24.7,30.07,WNW,299,2.6,4.5,51,0.00,SCT,,0.00,0.0,WeatherDisplay:10.37,2013-03-28 00:11:00,
2013-03-27 20:16:00,41.2,24.4,30.07,West,281,4.7,8.1,51,0.00,SCT,,0.00,0.0,WeatherDisplay:10.37,2013-03-28 00:16:00,
2013-03-27 20:21:00,40.9,24.6,30.07,WNW,282,2.4,4.5,52,0.00,SCT,,0.00,0.0,WeatherDisplay:10.37,2013-03-28 00:21:00,
2013-03-27 20:26:00,40.8,25.0,30.07,West,281,2.9,4.6,53,0.00,SCT,,0.00,0.0,WeatherDisplay:10.37,2013-03-28 00:26:00,
2013-03-27 20:31:00,40.6,24.8,30.07,West,270,1.0,3.5,53,0.00,SCT,,0.00,0.0,WeatherDisplay:10.37,2013-03-28 00:31:00,
2013-03-27 20:36:00,40.6,24.8,30.08,West,270,1.5,3.5,53,0.00,SCT,,0.00,0.0,WeatherDisplay:10.37,2013-03-28 00:36:00,
2013-03-27 20:41:00,40.6,24.8,30.08,West,281,3.7,4.6,53,0.00,SCT,,0.00,0.0,WeatherDisplay:10.37,2013-03-28 00:41:00,
2013-03-27 20:46:00,40.8,25.0,30.08,WNW,285,4.1,6.0,53,0.00,SCT,,0.00,0.0,WeatherDisplay:10.37,2013-03-28 00:46:00,
2013-03-27 20:51:00,40.8,25.0,30.08,WNW,284,2.6,6.0,53,0.00,SCT,,0.00,0.0,WeatherDisplay:10.37,2013-03-28 00:51:00,
2013-03-27 20:56:00,40.6,24.8,30.08,WNW,284,0.1,1.5,53,0.00,SCT,,0.00,0.0,WeatherDisplay:10.37,2013-03-28 00:56:00,
2013-03-27 21:01:00,40.5,25.1,30.08,WNW,284,0.0,0.0,54,0.00,SCT,,0.00,0.0,WeatherDisplay:10.37,2013-03-28 01:01:00,
2013-03-27 21:07:00,40.2,25.3,30.08,WNW,284,0.0,0.0,55,0.00,SCT,,0.00,0.0,WeatherDisplay:10.37,2013-03-28 01:07:00,
2013-03-27 21:12:00,40.1,25.2,30.08,WNW,284,0.0,0.0,55,0.00,SCT,,0.00,0.0,WeatherDisplay:10.37,2013-03-28 01:12:00,
2013-03-27 21:17:00,39.9,25.5,30.08,WNW,283,0.1,1.5,56,0.00,SCT,,0.00,0.0,WeatherDisplay:10.37,2013-03-28 01:17:00,
2013-03-27 21:22:00,39.8,25.4,30.08,WNW,283,0.0,0.0,56,0.00,SCT,,0.00,0.0,WeatherDisplay:10.37,2013-03-28 01:22:00,
2013-03-27 21:27:00,39.8,25.8,30.09,WNW,283,0.0,0.0,57,0.00,SCT,,0.00,0.0,WeatherDisplay:10.37,2013-03-28 01:27:00,
2013-03-27 21:32:00,39.6,25.6,30.09,WNW,283,0.0,0.0,57,0.00,SCT,,0.00,0.0,WeatherDisplay:10.37,2013-03-28 01:32:00,
2013-03-27 21:37:00,39.3,25.7,30.09,WNW,283,0.0,0.0,58,0.00,SCT,,0.00,0.0,WeatherDisplay:10.37,2013-03-28 01:37:00,
2013-03-27 21:42:00,39.3,26.6,30.09,WNW,282,0.1,1.5,60,0.00,SCT,,0.00,0.0,WeatherDisplay:10.37,2013-03-28 01:42:00,
2013-03-27 21:47:00,39.2,26.9,30.09,WNW,282,2.7,4.5,61,0.00,SCT,,0.00,0.0,WeatherDisplay:10.37,2013-03-28 01:47:00,
2013-03-27 21:52:00,39.1,27.2,30.09,WSW,253,5.3,5.8,62,0.00,SCT,,0.00,0.0,WeatherDisplay:10.37,2013-03-28 01:52:00,
2013-03-27 21:57:00,39.1,27.2,30.09,WSW,252,4.8,5.8,62,0.00,SCT,,0.00,0.0,WeatherDisplay:10.37,2013-03-28 01:57:00,
2013-03-27 22:02:00,38.9,27.0,30.09,WSW,252,3.3,8.1,62,0.00,SCT,,0.00,0.0,WeatherDisplay:10.37,2013-03-28 02:02:00,
2013-03-27 22:07:00,38.9,27.4,30.09,West,266,2.4,5.8,63,0.00,SCT,,0.00,0.0,WeatherDisplay:10.37,2013-03-28 02:07:00,
2013-03-27 22:12:00,39.1,27.6,30.09,West,266,0.7,3.5,63,0.00,CLR,,0.00,0.0,WeatherDisplay:10.37,2013-03-28 02:12:00,
2013-03-27 22:17:00,39.2,27.7,30.09,West,261,5.5,8.1,63,0.00,CLR,,0.00,0.0,WeatherDisplay:10.37,2013-03-28 02:17:00,
2013-03-27 22:22:00,39.3,27.4,30.09,WNW,295,1.0,5.8,62,0.00,CLR,,0.00,0.0,WeatherDisplay:10.37,2013-03-28 02:22:00,
2013-03-27 22:27:00,39.6,27.6,30.10,NW,317,6.2,9.2,62,0.00,CLR,,0.00,0.0,WeatherDisplay:10.37,2013-03-28 02:27:00,
2013-03-27 22:32:00,39.8,27.8,30.10,NW,315,4.7,5.8,62,0.00,CLR,,0.00,0.0,WeatherDisplay:10.37,2013-03-28 02:32:00,
2013-03-27 22:37:00,39.8,27.4,30.10,NW,311,9.4,9.4,61,0.00,CLR,,0.00,0.0,WeatherDisplay:10.37,2013-03-28 02:37:00,
2013-03-27 22:42:00,39.9,27.1,30.10,NW,325,6.3,6.3,60,0.00,CLR,,0.00,0.0,WeatherDisplay:10.37,2013-03-28 02:42:00,
2013-03-27 22:47:00,39.8,27.0,30.09,NW,323,3.7,8.1,60,0.00,CLR,,0.00,0.0,WeatherDisplay:10.37,2013-03-28 02:47:00,
2013-03-27 22:52:00,39.5,26.8,30.09,NW,323,0.1,1.5,60,0.00,CLR,,0.00,0.0,WeatherDisplay:10.37,2013-03-28 02:52:00,
2013-03-27 22:57:00,39.1,26.8,30.09,NW,323,0.0,1.2,61,0.00,CLR,,0.00,0.0,WeatherDisplay:10.37,2013-03-28 02:57:00,
2013-03-27 23:02:00,38.9,26.6,30.09,NW,323,0.0,0.0,61,0.00,CLR,,0.00,0.0,WeatherDisplay:10.37,2013-03-28 03:02:00,
2013-03-27 23:07:00,38.5,26.2,30.09,NW,323,0.0,0.0,61,0.00,CLR,,0.00,0.0,WeatherDisplay:10.37,2013-03-28 03:07:00,
2013-03-27 23:12:00,38.0,26.1,30.10,NW,323,0.0,0.0,62,0.00,SCT,,0.00,0.0,WeatherDisplay:10.37,2013-03-28 03:12:00,
2013-03-27 23:17:00,37.5,25.7,30.10,NW,323,0.1,1.2,62,0.00,SCT,,0.00,0.0,WeatherDisplay:10.37,2013-03-28 03:17:00,
2013-03-27 23:22:00,37.6,26.5,30.09,WNW,297,3.6,6.0,64,0.00,SCT,,0.00,0.0,WeatherDisplay:10.37,2013-03-28 03:22:00,
2013-03-27 23:27:00,38.5,27.4,30.09,WNW,300,5.0,6.0,64,0.00,SCT,,0.00,0.0,WeatherDisplay:10.37,2013-03-28 03:27:00,
2013-03-27 23:32:00,38.9,27.8,30.09,NW,325,2.2,5.8,64,0.00,SCT,,0.00,0.0,WeatherDisplay:10.37,2013-03-28 03:32:00,
2013-03-27 23:37:00,39.2,28.0,30.09,NW,317,4.6,4.6,64,0.00,SCT,,0.00,0.0,WeatherDisplay:10.37,2013-03-28 03:37:00,
2013-03-27 23:42:00,39.2,28.0,30.09,NW,318,3.5,4.6,64,0.00,SCT,,0.00,0.0,WeatherDisplay:10.37,2013-03-28 03:42:00,
2013-03-27 23:47:00,39.1,27.9,30.09,NW,318,0.9,4.6,64,0.00,SCT,,0.00,0.0,WeatherDisplay:10.37,2013-03-28 03:47:00,
2013-03-27 23:52:00,38.8,28.0,30.09,NW,307,1.3,3.0,65,0.00,SCT,,0.00,0.0,WeatherDisplay:10.37,2013-03-28 03:52:00,
2013-03-27 23:57:00,38.5,27.7,30.09,NW,304,2.5,4.6,65,0.00,SCT,,0.00,0.0,WeatherDisplay:10.37,2013-03-28 03:57:00,